Terminal Aerodrome Forecast
Issued by NWS

Current Version | Previous Version | Graphics & Text | Print | Product List | Glossary On
Versions: 1 2 3 4 5 6 7 8 9 10 11 12 13 14 15 16 17 18 19 20 21 22 23 24 25 26
000
FTUS41 KRLX 191100
TAFCKB
TAF
KCKB 191122Z 1912/2012 06004KT P6SM BKN250 WS020/16030KT
     FM191400 08009G16KT P6SM BKN150
     FM191800 11013G18KT P6SM BKN070
     FM192000 10013G23KT P6SM -SHRA OVC040
     FM192200 10013G25KT 4SM SHRA BR OVC035
     FM200400 16009G15KT P6SM BKN035
     FM201100 18004KT 6SM BR BKN015=

USA.gov is the U.S. government's official web portal to all federal, state and local government web resources and services.